sensor_id;sensor_type;location;lat;lon;timestamp;temperature;humidity
26909;DHT22;14477;51.038;4.588;2024-02-23T00:00:41;7.90;99.90
26909;DHT22;14477;51.038;4.588;2024-02-23T00:03:07;7.90;99.90
26909;DHT22;14477;51.038;4.588;2024-02-23T00:05:34;7.90;99.90
26909;DHT22;14477;51.038;4.588;2024-02-23T00:07:59;7.80;99.90
26909;DHT22;14477;51.038;4.588;2024-02-23T00:10:25;7.90;99.90
26909;DHT22;14477;51.038;4.588;2024-02-23T00:12:51;7.90;99.90
26909;DHT22;14477;51.038;4.588;2024-02-23T00:15:17;7.90;99.90
26909;DHT22;14477;51.038;4.588;2024-02-23T00:17:42;7.90;99.90
26909;DHT22;14477;51.038;4.588;2024-02-23T00:20:09;7.90;99.90
26909;DHT22;14477;51.038;4.588;2024-02-23T00:22:38;7.90;99.90
26909;DHT22;14477;51.038;4.588;2024-02-23T00:25:04;7.90;99.90
26909;DHT22;14477;51.038;4.588;2024-02-23T00:27:31;7.90;99.90
26909;DHT22;14477;51.038;4.588;2024-02-23T00:29:56;7.90;99.90
26909;DHT22;14477;51.038;4.588;2024-02-23T00:32:22;8.60;99.90
26909;DHT22;14477;51.038;4.588;2024-02-23T00:34:48;7.90;99.90
26909;DHT22;14477;51.038;4.588;2024-02-23T00:37:13;7.90;99.90
26909;DHT22;14477;51.038;4.588;2024-02-23T00:39:40;7.90;99.90
26909;DHT22;14477;51.038;4.588;2024-02-23T00:42:06;7.90;99.90
26909;DHT22;14477;51.038;4.588;2024-02-23T00:44:33;7.90;99.90
26909;DHT22;14477;51.038;4.588;2024-02-23T00:46:58;7.90;99.90
26909;DHT22;14477;51.038;4.588;2024-02-23T00:49:30;7.90;99.90
26909;DHT22;14477;51.038;4.588;2024-02-23T00:51:56;8.00;99.90
26909;DHT22;14477;51.038;4.588;2024-02-23T00:54:22;8.00;99.90
26909;DHT22;14477;51.038;4.588;2024-02-23T00:56:48;8.00;99.90
26909;DHT22;14477;51.038;4.588;2024-02-23T00:59:13;7.50;99.90
26909;DHT22;14477;51.038;4.588;2024-02-23T01:01:39;8.00;99.90
26909;DHT22;14477;51.038;4.588;2024-02-23T01:04:05;8.00;99.90
26909;DHT22;14477;51.038;4.588;2024-02-23T01:06:31;8.00;99.90
26909;DHT22;14477;51.038;4.588;2024-02-23T01:08:56;7.90;99.90
26909;DHT22;14477;51.038;4.588;2024-02-23T01:11:22;7.90;99.90
26909;DHT22;14477;51.038;4.588;2024-02-23T01:13:48;7.90;99.90
26909;DHT22;14477;51.038;4.588;2024-02-23T01:16:14;7.90;99.90
26909;DHT22;14477;51.038;4.588;2024-02-23T01:18:40;7.80;99.90
26909;DHT22;14477;51.038;4.588;2024-02-23T01:21:05;7.30;99.90
26909;DHT22;14477;51.038;4.588;2024-02-23T01:23:32;7.70;99.90
26909;DHT22;14477;51.038;4.588;2024-02-23T01:25:57;7.70;99.90
26909;DHT22;14477;51.038;4.588;2024-02-23T01:28:25;7.80;99.90
26909;DHT22;14477;51.038;4.588;2024-02-23T01:30:50;7.80;99.90
26909;DHT22;14477;51.038;4.588;2024-02-23T01:33:16;7.70;99.90
26909;DHT22;14477;51.038;4.588;2024-02-23T01:35:42;7.60;99.90
26909;DHT22;14477;51.038;4.588;2024-02-23T01:38:07;7.60;99.90
26909;DHT22;14477;51.038;4.588;2024-02-23T01:40:33;7.60;99.90
26909;DHT22;14477;51.038;4.588;2024-02-23T01:43:06;7.60;99.90
26909;DHT22;14477;51.038;4.588;2024-02-23T01:45:32;7.60;99.90
26909;DHT22;14477;51.038;4.588;2024-02-23T01:47:59;7.60;99.90
26909;DHT22;14477;51.038;4.588;2024-02-23T01:50:27;7.60;99.90
26909;DHT22;14477;51.038;4.588;2024-02-23T01:52:53;7.50;99.90
26909;DHT22;14477;51.038;4.588;2024-02-23T01:55:20;7.50;99.90
26909;DHT22;14477;51.038;4.588;2024-02-23T01:57:47;7.60;99.90
26909;DHT22;14477;51.038;4.588;2024-02-23T02:00:16;7.50;99.90
26909;DHT22;14477;51.038;4.588;2024-02-23T02:02:43;7.60;99.90
26909;DHT22;14477;51.038;4.588;2024-02-23T02:05:09;7.60;99.90
26909;DHT22;14477;51.038;4.588;2024-02-23T02:07:35;7.60;99.90
26909;DHT22;14477;51.038;4.588;2024-02-23T02:10:01;7.60;99.90
26909;DHT22;14477;51.038;4.588;2024-02-23T02:12:29;7.50;99.90
26909;DHT22;14477;51.038;4.588;2024-02-23T02:14:55;7.60;99.90
26909;DHT22;14477;51.038;4.588;2024-02-23T02:17:24;7.50;99.90
26909;DHT22;14477;51.038;4.588;2024-02-23T02:19:50;7.60;99.90
26909;DHT22;14477;51.038;4.588;2024-02-23T02:22:16;7.50;99.90
26909;DHT22;14477;51.038;4.588;2024-02-23T02:24:41;7.50;99.90
26909;DHT22;14477;51.038;4.588;2024-02-23T02:27:09;7.60;99.90
26909;DHT22;14477;51.038;4.588;2024-02-23T02:29:35;10.50;99.90
26909;DHT22;14477;51.038;4.588;2024-02-23T02:32:01;7.50;99.90
26909;DHT22;14477;51.038;4.588;2024-02-23T02:34:28;7.50;99.90
26909;DHT22;14477;51.038;4.588;2024-02-23T02:36:54;7.50;99.90
26909;DHT22;14477;51.038;4.588;2024-02-23T02:39:20;7.50;99.90
26909;DHT22;14477;51.038;4.588;2024-02-23T02:41:48;7.50;99.90
26909;DHT22;14477;51.038;4.588;2024-02-23T02:44:14;7.40;99.90
26909;DHT22;14477;51.038;4.588;2024-02-23T02:46:41;7.40;99.90
26909;DHT22;14477;51.038;4.588;2024-02-23T02:49:06;7.40;99.90
26909;DHT22;14477;51.038;4.588;2024-02-23T02:51:32;5.50;99.90
26909;DHT22;14477;51.038;4.588;2024-02-23T02:53:58;7.40;99.90
26909;DHT22;14477;51.038;4.588;2024-02-23T02:56:24;7.40;99.90
26909;DHT22;14477;51.038;4.588;2024-02-23T02:58:49;7.40;99.90
26909;DHT22;14477;51.038;4.588;2024-02-23T03:01:15;7.40;99.90
26909;DHT22;14477;51.038;4.588;2024-02-23T03:03:41;7.40;99.90
26909;DHT22;14477;51.038;4.588;2024-02-23T03:06:07;9.20;99.90
26909;DHT22;14477;51.038;4.588;2024-02-23T03:08:33;7.40;99.90
26909;DHT22;14477;51.038;4.588;2024-02-23T03:10:59;7.40;99.90
26909;DHT22;14477;51.038;4.588;2024-02-23T03:13:25;7.50;99.90
26909;DHT22;14477;51.038;4.588;2024-02-23T03:15:51;7.50;99.90
26909;DHT22;14477;51.038;4.588;2024-02-23T03:18:16;7.50;99.90
26909;DHT22;14477;51.038;4.588;2024-02-23T03:20:42;7.50;99.90
26909;DHT22;14477;51.038;4.588;2024-02-23T03:23:08;10.60;99.90
26909;DHT22;14477;51.038;4.588;2024-02-23T03:25:34;7.50;99.90
26909;DHT22;14477;51.038;4.588;2024-02-23T03:27:59;7.60;99.90
26909;DHT22;14477;51.038;4.588;2024-02-23T03:30:25;7.60;99.90
26909;DHT22;14477;51.038;4.588;2024-02-23T03:32:51;7.60;99.90
26909;DHT22;14477;51.038;4.588;2024-02-23T03:35:17;7.60;99.90
26909;DHT22;14477;51.038;4.588;2024-02-23T03:37:42;10.40;99.90
26909;DHT22;14477;51.038;4.588;2024-02-23T03:40:09;6.30;99.90
26909;DHT22;14477;51.038;4.588;2024-02-23T03:42:35;7.60;99.90
26909;DHT22;14477;51.038;4.588;2024-02-23T03:45:02;7.60;99.90
26909;DHT22;14477;51.038;4.588;2024-02-23T03:47:27;7.60;99.90
26909;DHT22;14477;51.038;4.588;2024-02-23T03:49:54;7.70;99.90
26909;DHT22;14477;51.038;4.588;2024-02-23T03:52:20;7.60;99.90
26909;DHT22;14477;51.038;4.588;2024-02-23T03:54:45;7.70;99.90
26909;DHT22;14477;51.038;4.588;2024-02-23T03:57:11;7.70;99.90
26909;DHT22;14477;51.038;4.588;2024-02-23T03:59:37;7.70;99.90
26909;DHT22;14477;51.038;4.588;2024-02-23T04:02:03;7.70;99.90
26909;DHT22;14477;51.038;4.588;2024-02-23T04:04:29;7.80;99.90
26909;DHT22;14477;51.038;4.588;2024-02-23T04:06:55;7.80;99.90
26909;DHT22;14477;51.038;4.588;2024-02-23T04:09:21;7.80;99.90
26909;DHT22;14477;51.038;4.588;2024-02-23T04:11:49;6.60;99.90
26909;DHT22;14477;51.038;4.588;2024-02-23T04:14:15;8.00;99.90
26909;DHT22;14477;51.038;4.588;2024-02-23T04:16:41;8.00;99.90
26909;DHT22;14477;51.038;4.588;2024-02-23T04:19:07;8.00;99.90
26909;DHT22;14477;51.038;4.588;2024-02-23T04:21:32;8.00;99.90
26909;DHT22;14477;51.038;4.588;2024-02-23T04:23:58;8.10;99.90
26909;DHT22;14477;51.038;4.588;2024-02-23T04:26:24;8.20;99.90
26909;DHT22;14477;51.038;4.588;2024-02-23T04:28:50;8.20;99.90
26909;DHT22;14477;51.038;4.588;2024-02-23T04:31:15;8.20;99.90
26909;DHT22;14477;51.038;4.588;2024-02-23T04:33:41;10.60;99.90
26909;DHT22;14477;51.038;4.588;2024-02-23T04:36:07;8.20;99.90
26909;DHT22;14477;51.038;4.588;2024-02-23T04:38:33;8.30;99.90
26909;DHT22;14477;51.038;4.588;2024-02-23T04:41:03;8.30;99.90
26909;DHT22;14477;51.038;4.588;2024-02-23T04:43:32;8.30;99.90
26909;DHT22;14477;51.038;4.588;2024-02-23T04:45:58;8.30;99.90
26909;DHT22;14477;51.038;4.588;2024-02-23T04:48:24;8.30;99.90
26909;DHT22;14477;51.038;4.588;2024-02-23T04:50:50;8.30;99.90
26909;DHT22;14477;51.038;4.588;2024-02-23T04:53:15;8.30;99.90
26909;DHT22;14477;51.038;4.588;2024-02-23T04:55:41;8.30;99.90
26909;DHT22;14477;51.038;4.588;2024-02-23T04:58:07;8.30;99.90
26909;DHT22;14477;51.038;4.588;2024-02-23T05:00:33;8.30;99.90
26909;DHT22;14477;51.038;4.588;2024-02-23T05:03:01;8.20;99.90
26909;DHT22;14477;51.038;4.588;2024-02-23T05:05:31;8.20;99.90
26909;DHT22;14477;51.038;4.588;2024-02-23T05:07:57;8.20;99.90
26909;DHT22;14477;51.038;4.588;2024-02-23T05:10:23;8.20;99.90
26909;DHT22;14477;51.038;4.588;2024-02-23T05:12:49;8.20;99.90
26909;DHT22;14477;51.038;4.588;2024-02-23T05:15:15;8.20;99.90
26909;DHT22;14477;51.038;4.588;2024-02-23T05:17:41;8.20;99.90
26909;DHT22;14477;51.038;4.588;2024-02-23T05:20:07;8.20;99.90
26909;DHT22;14477;51.038;4.588;2024-02-23T05:22:36;8.20;99.90
26909;DHT22;14477;51.038;4.588;2024-02-23T05:25:02;8.30;99.90
26909;DHT22;14477;51.038;4.588;2024-02-23T05:27:29;8.30;99.90
26909;DHT22;14477;51.038;4.588;2024-02-23T05:29:54;8.30;99.90
26909;DHT22;14477;51.038;4.588;2024-02-23T05:32:20;8.30;99.90
26909;DHT22;14477;51.038;4.588;2024-02-23T05:34:46;8.30;99.90
26909;DHT22;14477;51.038;4.588;2024-02-23T05:37:11;8.30;99.90
26909;DHT22;14477;51.038;4.588;2024-02-23T05:39:37;8.30;99.90
26909;DHT22;14477;51.038;4.588;2024-02-23T05:42:04;8.30;99.90
26909;DHT22;14477;51.038;4.588;2024-02-23T05:44:30;8.40;99.90
26909;DHT22;14477;51.038;4.588;2024-02-23T05:46:55;8.40;99.90
26909;DHT22;14477;51.038;4.588;2024-02-23T05:49:21;8.40;99.90
26909;DHT22;14477;51.038;4.588;2024-02-23T05:51:47;8.40;99.90
26909;DHT22;14477;51.038;4.588;2024-02-23T05:54:13;8.40;99.90
26909;DHT22;14477;51.038;4.588;2024-02-23T05:56:39;8.40;99.90
26909;DHT22;14477;51.038;4.588;2024-02-23T05:59:04;8.40;99.90
26909;DHT22;14477;51.038;4.588;2024-02-23T06:01:31;8.40;99.90
26909;DHT22;14477;51.038;4.588;2024-02-23T06:03:57;8.40;99.90
26909;DHT22;14477;51.038;4.588;2024-02-23T06:06:23;8.40;99.90
26909;DHT22;14477;51.038;4.588;2024-02-23T06:08:49;8.40;99.90
26909;DHT22;14477;51.038;4.588;2024-02-23T06:11:15;7.40;99.90
26909;DHT22;14477;51.038;4.588;2024-02-23T06:13:41;8.40;99.90
26909;DHT22;14477;51.038;4.588;2024-02-23T06:16:10;8.40;99.90
26909;DHT22;14477;51.038;4.588;2024-02-23T06:18:37;8.40;99.90
26909;DHT22;14477;51.038;4.588;2024-02-23T06:21:13;8.40;99.90
26909;DHT22;14477;51.038;4.588;2024-02-23T06:23:40;8.40;99.90
26909;DHT22;14477;51.038;4.588;2024-02-23T06:26:05;8.40;99.90
26909;DHT22;14477;51.038;4.588;2024-02-23T06:28:31;8.40;99.90
26909;DHT22;14477;51.038;4.588;2024-02-23T06:30:57;8.40;99.90
26909;DHT22;14477;51.038;4.588;2024-02-23T06:33:22;8.40;99.90
26909;DHT22;14477;51.038;4.588;2024-02-23T06:35:48;8.40;99.90
26909;DHT22;14477;51.038;4.588;2024-02-23T06:38:14;8.40;99.90
26909;DHT22;14477;51.038;4.588;2024-02-23T06:40:39;8.40;99.90
26909;DHT22;14477;51.038;4.588;2024-02-23T06:43:05;8.40;99.90
26909;DHT22;14477;51.038;4.588;2024-02-23T06:45:31;8.40;99.90
26909;DHT22;14477;51.038;4.588;2024-02-23T06:47:57;8.40;99.90
26909;DHT22;14477;51.038;4.588;2024-02-23T06:50:22;8.40;99.90
26909;DHT22;14477;51.038;4.588;2024-02-23T06:52:48;8.40;99.90
26909;DHT22;14477;51.038;4.588;2024-02-23T06:55:15;8.40;99.90
26909;DHT22;14477;51.038;4.588;2024-02-23T06:57:42;8.40;99.90
26909;DHT22;14477;51.038;4.588;2024-02-23T07:00:08;8.50;99.90
26909;DHT22;14477;51.038;4.588;2024-02-23T07:02:34;8.50;99.90
26909;DHT22;14477;51.038;4.588;2024-02-23T07:05:02;8.50;99.90
26909;DHT22;14477;51.038;4.588;2024-02-23T07:07:32;8.50;99.90
26909;DHT22;14477;51.038;4.588;2024-02-23T07:09:59;8.50;99.90
26909;DHT22;14477;51.038;4.588;2024-02-23T07:12:25;8.50;99.90
26909;DHT22;14477;51.038;4.588;2024-02-23T07:14:53;8.50;99.90
26909;DHT22;14477;51.038;4.588;2024-02-23T07:17:19;8.60;99.90
26909;DHT22;14477;51.038;4.588;2024-02-23T07:19:45;8.40;99.90
26909;DHT22;14477;51.038;4.588;2024-02-23T07:22:11;8.60;99.90
26909;DHT22;14477;51.038;4.588;2024-02-23T07:24:40;8.70;99.90
26909;DHT22;14477;51.038;4.588;2024-02-23T07:27:06;8.60;99.90
26909;DHT22;14477;51.038;4.588;2024-02-23T07:29:32;8.70;99.90
26909;DHT22;14477;51.038;4.588;2024-02-23T07:31:58;8.70;99.90
26909;DHT22;14477;51.038;4.588;2024-02-23T07:34:23;8.70;99.90
26909;DHT22;14477;51.038;4.588;2024-02-23T07:36:52;8.70;99.90
26909;DHT22;14477;51.038;4.588;2024-02-23T07:39:18;8.70;99.90
26909;DHT22;14477;51.038;4.588;2024-02-23T07:41:44;8.70;99.90
26909;DHT22;14477;51.038;4.588;2024-02-23T07:44:09;8.70;99.90
26909;DHT22;14477;51.038;4.588;2024-02-23T07:46:35;8.70;99.90
26909;DHT22;14477;51.038;4.588;2024-02-23T07:49:01;8.80;99.90
26909;DHT22;14477;51.038;4.588;2024-02-23T07:51:26;8.80;99.90
26909;DHT22;14477;51.038;4.588;2024-02-23T07:53:52;8.80;99.90
26909;DHT22;14477;51.038;4.588;2024-02-23T07:56:18;8.90;99.90
26909;DHT22;14477;51.038;4.588;2024-02-23T07:58:44;8.90;99.90
26909;DHT22;14477;51.038;4.588;2024-02-23T08:01:09;8.90;99.90
26909;DHT22;14477;51.038;4.588;2024-02-23T08:03:35;8.90;99.90
26909;DHT22;14477;51.038;4.588;2024-02-23T08:06:01;8.90;99.90
26909;DHT22;14477;51.038;4.588;2024-02-23T08:08:26;9.00;99.90
26909;DHT22;14477;51.038;4.588;2024-02-23T08:10:53;9.10;99.90
26909;DHT22;14477;51.038;4.588;2024-02-23T08:13:19;9.10;99.90
26909;DHT22;14477;51.038;4.588;2024-02-23T08:15:45;9.10;99.90
26909;DHT22;14477;51.038;4.588;2024-02-23T08:18:10;9.20;99.90
26909;DHT22;14477;51.038;4.588;2024-02-23T08:20:36;9.20;99.90
26909;DHT22;14477;51.038;4.588;2024-02-23T08:23:02;11.20;99.90
26909;DHT22;14477;51.038;4.588;2024-02-23T08:25:28;9.20;99.90
26909;DHT22;14477;51.038;4.588;2024-02-23T08:27:57;9.20;99.90
26909;DHT22;14477;51.038;4.588;2024-02-23T08:30:24;9.20;99.90
26909;DHT22;14477;51.038;4.588;2024-02-23T08:32:50;9.20;99.90
26909;DHT22;14477;51.038;4.588;2024-02-23T08:35:16;9.10;99.90
26909;DHT22;14477;51.038;4.588;2024-02-23T08:37:41;9.10;99.90
26909;DHT22;14477;51.038;4.588;2024-02-23T08:40:08;9.00;99.90
26909;DHT22;14477;51.038;4.588;2024-02-23T08:42:34;8.90;99.90
26909;DHT22;14477;51.038;4.588;2024-02-23T08:45:00;8.80;99.90
26909;DHT22;14477;51.038;4.588;2024-02-23T08:47:26;8.80;99.90
26909;DHT22;14477;51.038;4.588;2024-02-23T08:49:57;8.60;99.90
26909;DHT22;14477;51.038;4.588;2024-02-23T08:52:23;8.60;99.90
26909;DHT22;14477;51.038;4.588;2024-02-23T08:54:49;8.50;99.90
26909;DHT22;14477;51.038;4.588;2024-02-23T08:57:15;8.40;99.90
26909;DHT22;14477;51.038;4.588;2024-02-23T08:59:45;8.30;99.90
26909;DHT22;14477;51.038;4.588;2024-02-23T09:02:11;8.30;99.90
26909;DHT22;14477;51.038;4.588;2024-02-23T09:04:37;8.30;99.90
26909;DHT22;14477;51.038;4.588;2024-02-23T09:07:02;8.30;99.90
26909;DHT22;14477;51.038;4.588;2024-02-23T09:09:28;8.20;99.90
26909;DHT22;14477;51.038;4.588;2024-02-23T09:11:54;8.20;99.90
26909;DHT22;14477;51.038;4.588;2024-02-23T09:14:19;8.30;99.90
26909;DHT22;14477;51.038;4.588;2024-02-23T09:16:45;8.30;99.90
26909;DHT22;14477;51.038;4.588;2024-02-23T09:19:12;8.30;99.90
26909;DHT22;14477;51.038;4.588;2024-02-23T09:21:38;8.30;99.90
26909;DHT22;14477;51.038;4.588;2024-02-23T09:24:05;8.30;99.90
26909;DHT22;14477;51.038;4.588;2024-02-23T09:26:30;8.40;99.90
26909;DHT22;14477;51.038;4.588;2024-02-23T09:28:56;8.40;99.90
26909;DHT22;14477;51.038;4.588;2024-02-23T09:31:22;8.50;99.90
26909;DHT22;14477;51.038;4.588;2024-02-23T09:33:48;8.50;99.90
26909;DHT22;14477;51.038;4.588;2024-02-23T09:36:17;8.60;99.90
26909;DHT22;14477;51.038;4.588;2024-02-23T09:38:43;8.60;99.90
26909;DHT22;14477;51.038;4.588;2024-02-23T09:41:19;8.70;99.90
26909;DHT22;14477;51.038;4.588;2024-02-23T09:43:46;8.80;99.90
26909;DHT22;14477;51.038;4.588;2024-02-23T09:46:13;8.90;99.90
26909;DHT22;14477;51.038;4.588;2024-02-23T09:48:42;8.90;99.90
26909;DHT22;14477;51.038;4.588;2024-02-23T09:51:10;8.30;99.90
26909;DHT22;14477;51.038;4.588;2024-02-23T09:53:38;9.10;99.90
26909;DHT22;14477;51.038;4.588;2024-02-23T09:56:04;9.20;99.90
26909;DHT22;14477;51.038;4.588;2024-02-23T09:58:34;9.30;99.90
26909;DHT22;14477;51.038;4.588;2024-02-23T10:01:02;9.40;99.90
26909;DHT22;14477;51.038;4.588;2024-02-23T10:03:29;9.50;99.90
26909;DHT22;14477;51.038;4.588;2024-02-23T10:05:58;9.20;99.90
26909;DHT22;14477;51.038;4.588;2024-02-23T10:08:25;9.70;99.90
26909;DHT22;14477;51.038;4.588;2024-02-23T10:10:50;9.80;99.90
26909;DHT22;14477;51.038;4.588;2024-02-23T10:13:21;9.90;99.90
26909;DHT22;14477;51.038;4.588;2024-02-23T10:15:48;10.00;99.90
26909;DHT22;14477;51.038;4.588;2024-02-23T10:18:13;10.10;99.90
26909;DHT22;14477;51.038;4.588;2024-02-23T10:20:40;10.30;99.90
26909;DHT22;14477;51.038;4.588;2024-02-23T10:23:08;10.50;99.90
26909;DHT22;14477;51.038;4.588;2024-02-23T10:25:35;10.60;99.90
26909;DHT22;14477;51.038;4.588;2024-02-23T10:28:02;10.80;99.90
26909;DHT22;14477;51.038;4.588;2024-02-23T10:30:28;11.00;99.90
26909;DHT22;14477;51.038;4.588;2024-02-23T10:32:55;11.20;99.90
26909;DHT22;14477;51.038;4.588;2024-02-23T10:35:22;11.30;99.90
26909;DHT22;14477;51.038;4.588;2024-02-23T10:37:49;11.40;99.90
26909;DHT22;14477;51.038;4.588;2024-02-23T10:40:19;11.40;99.90
26909;DHT22;14477;51.038;4.588;2024-02-23T10:42:46;11.50;99.90
26909;DHT22;14477;51.038;4.588;2024-02-23T10:45:20;11.60;99.90
26909;DHT22;14477;51.038;4.588;2024-02-23T10:47:50;11.60;99.90
26909;DHT22;14477;51.038;4.588;2024-02-23T10:50:17;11.70;99.90
26909;DHT22;14477;51.038;4.588;2024-02-23T10:52:45;11.60;99.90
26909;DHT22;14477;51.038;4.588;2024-02-23T10:55:14;11.50;99.90
26909;DHT22;14477;51.038;4.588;2024-02-23T10:57:40;11.50;99.90
26909;DHT22;14477;51.038;4.588;2024-02-23T11:00:08;11.40;99.90
26909;DHT22;14477;51.038;4.588;2024-02-23T11:02:44;11.40;99.90
26909;DHT22;14477;51.038;4.588;2024-02-23T11:05:12;11.30;99.90
26909;DHT22;14477;51.038;4.588;2024-02-23T11:07:39;11.30;99.90
26909;DHT22;14477;51.038;4.588;2024-02-23T11:10:05;11.20;99.90
26909;DHT22;14477;51.038;4.588;2024-02-23T11:12:31;11.10;99.90
26909;DHT22;14477;51.038;4.588;2024-02-23T11:15:00;11.10;99.90
26909;DHT22;14477;51.038;4.588;2024-02-23T11:17:32;11.10;99.90
26909;DHT22;14477;51.038;4.588;2024-02-23T11:20:02;11.10;99.90
26909;DHT22;14477;51.038;4.588;2024-02-23T11:22:34;11.10;99.90
26909;DHT22;14477;51.038;4.588;2024-02-23T11:25:04;11.10;99.90
26909;DHT22;14477;51.038;4.588;2024-02-23T11:27:37;11.10;99.90
26909;DHT22;14477;51.038;4.588;2024-02-23T11:30:04;11.10;99.90
26909;DHT22;14477;51.038;4.588;2024-02-23T11:32:42;11.20;99.90
26909;DHT22;14477;51.038;4.588;2024-02-23T11:35:10;11.20;99.90
26909;DHT22;14477;51.038;4.588;2024-02-23T11:37:49;11.30;99.90
26909;DHT22;14477;51.038;4.588;2024-02-23T11:40:22;11.30;99.90
26909;DHT22;14477;51.038;4.588;2024-02-23T11:42:48;11.40;99.90
26909;DHT22;14477;51.038;4.588;2024-02-23T11:45:13;9.60;99.90
26909;DHT22;14477;51.038;4.588;2024-02-23T11:47:39;11.50;99.90
26909;DHT22;14477;51.038;4.588;2024-02-23T11:50:09;11.60;99.90
26909;DHT22;14477;51.038;4.588;2024-02-23T11:52:39;11.70;99.90
26909;DHT22;14477;51.038;4.588;2024-02-23T11:55:06;11.70;99.90
26909;DHT22;14477;51.038;4.588;2024-02-23T11:57:35;11.60;99.90
26909;DHT22;14477;51.038;4.588;2024-02-23T12:00:02;11.60;99.90
26909;DHT22;14477;51.038;4.588;2024-02-23T12:02:28;11.60;99.90
26909;DHT22;14477;51.038;4.588;2024-02-23T12:04:54;11.50;99.90
26909;DHT22;14477;51.038;4.588;2024-02-23T12:07:20;11.60;99.90
26909;DHT22;14477;51.038;4.588;2024-02-23T12:09:47;11.50;99.90
26909;DHT22;14477;51.038;4.588;2024-02-23T12:12:13;11.40;99.90
26909;DHT22;14477;51.038;4.588;2024-02-23T12:14:42;11.40;99.90
26909;DHT22;14477;51.038;4.588;2024-02-23T12:17:08;11.30;99.90
26909;DHT22;14477;51.038;4.588;2024-02-23T12:19:43;11.80;99.90
26909;DHT22;14477;51.038;4.588;2024-02-23T12:22:10;11.30;99.90
26909;DHT22;14477;51.038;4.588;2024-02-23T12:24:37;11.20;99.90
26909;DHT22;14477;51.038;4.588;2024-02-23T12:27:03;11.20;99.90
26909;DHT22;14477;51.038;4.588;2024-02-23T12:29:30;11.20;99.90
26909;DHT22;14477;51.038;4.588;2024-02-23T12:32:06;11.10;99.90
26909;DHT22;14477;51.038;4.588;2024-02-23T12:34:32;11.10;99.90
26909;DHT22;14477;51.038;4.588;2024-02-23T12:36:58;10.20;99.90
26909;DHT22;14477;51.038;4.588;2024-02-23T12:39:24;11.10;99.90
26909;DHT22;14477;51.038;4.588;2024-02-23T12:41:50;11.10;99.90
26909;DHT22;14477;51.038;4.588;2024-02-23T12:44:16;11.10;99.90
26909;DHT22;14477;51.038;4.588;2024-02-23T12:46:42;11.10;99.90
26909;DHT22;14477;51.038;4.588;2024-02-23T12:49:07;11.10;99.90
26909;DHT22;14477;51.038;4.588;2024-02-23T12:51:33;11.20;99.90
26909;DHT22;14477;51.038;4.588;2024-02-23T12:53:59;11.20;99.90
26909;DHT22;14477;51.038;4.588;2024-02-23T12:58:51;11.30;99.90
26909;DHT22;14477;51.038;4.588;2024-02-23T13:01:21;11.40;99.90
26909;DHT22;14477;51.038;4.588;2024-02-23T13:03:48;11.40;99.90
26909;DHT22;14477;51.038;4.588;2024-02-23T13:06:14;11.50;99.90
26909;DHT22;14477;51.038;4.588;2024-02-23T13:08:40;11.50;99.90
26909;DHT22;14477;51.038;4.588;2024-02-23T13:11:08;11.60;99.90
26909;DHT22;14477;51.038;4.588;2024-02-23T13:13:33;11.60;99.90
26909;DHT22;14477;51.038;4.588;2024-02-23T13:16:00;11.70;99.90
26909;DHT22;14477;51.038;4.588;2024-02-23T13:18:25;11.80;99.90
26909;DHT22;14477;51.038;4.588;2024-02-23T13:20:51;11.80;99.90
26909;DHT22;14477;51.038;4.588;2024-02-23T13:23:17;11.90;99.90
26909;DHT22;14477;51.038;4.588;2024-02-23T13:25:44;11.90;99.90
26909;DHT22;14477;51.038;4.588;2024-02-23T13:28:10;11.90;99.90
26909;DHT22;14477;51.038;4.588;2024-02-23T13:30:36;11.90;99.90
26909;DHT22;14477;51.038;4.588;2024-02-23T13:33:03;11.90;99.90
26909;DHT22;14477;51.038;4.588;2024-02-23T13:35:29;11.80;99.90
26909;DHT22;14477;51.038;4.588;2024-02-23T13:37:55;11.80;99.90
26909;DHT22;14477;51.038;4.588;2024-02-23T13:40:22;11.90;99.90
26909;DHT22;14477;51.038;4.588;2024-02-23T13:42:48;11.80;99.90
26909;DHT22;14477;51.038;4.588;2024-02-23T13:45:19;11.80;99.90
26909;DHT22;14477;51.038;4.588;2024-02-23T13:47:58;11.80;99.90
26909;DHT22;14477;51.038;4.588;2024-02-23T13:50:24;11.70;99.90
26909;DHT22;14477;51.038;4.588;2024-02-23T13:52:50;11.70;99.90
26909;DHT22;14477;51.038;4.588;2024-02-23T13:55:15;11.80;99.90
26909;DHT22;14477;51.038;4.588;2024-02-23T13:57:41;11.80;99.90
26909;DHT22;14477;51.038;4.588;2024-02-23T14:00:07;11.80;99.90
26909;DHT22;14477;51.038;4.588;2024-02-23T14:02:38;11.80;99.90
26909;DHT22;14477;51.038;4.588;2024-02-23T14:05:06;11.90;99.90
26909;DHT22;14477;51.038;4.588;2024-02-23T14:07:35;11.90;99.90
26909;DHT22;14477;51.038;4.588;2024-02-23T14:10:02;12.00;99.90
26909;DHT22;14477;51.038;4.588;2024-02-23T14:12:29;12.00;99.90
26909;DHT22;14477;51.038;4.588;2024-02-23T14:14:55;12.10;99.90
26909;DHT22;14477;51.038;4.588;2024-02-23T14:17:20;12.10;99.90
26909;DHT22;14477;51.038;4.588;2024-02-23T14:19:46;12.10;99.90
26909;DHT22;14477;51.038;4.588;2024-02-23T14:22:12;12.20;99.90
26909;DHT22;14477;51.038;4.588;2024-02-23T14:24:38;12.20;99.90
26909;DHT22;14477;51.038;4.588;2024-02-23T14:27:04;12.30;99.90
26909;DHT22;14477;51.038;4.588;2024-02-23T14:29:29;12.30;99.90
26909;DHT22;14477;51.038;4.588;2024-02-23T14:31:55;12.30;99.90
26909;DHT22;14477;51.038;4.588;2024-02-23T14:34:21;12.40;99.90
26909;DHT22;14477;51.038;4.588;2024-02-23T14:36:49;12.40;99.90
26909;DHT22;14477;51.038;4.588;2024-02-23T14:39:15;12.40;99.90
26909;DHT22;14477;51.038;4.588;2024-02-23T14:41:41;12.30;99.90
26909;DHT22;14477;51.038;4.588;2024-02-23T14:44:07;12.30;99.90
26909;DHT22;14477;51.038;4.588;2024-02-23T14:46:33;12.30;99.90
26909;DHT22;14477;51.038;4.588;2024-02-23T14:48:59;12.30;99.90
26909;DHT22;14477;51.038;4.588;2024-02-23T14:51:24;12.10;99.90
26909;DHT22;14477;51.038;4.588;2024-02-23T14:53:50;12.30;99.90
26909;DHT22;14477;51.038;4.588;2024-02-23T14:56:16;12.30;99.90
26909;DHT22;14477;51.038;4.588;2024-02-23T14:58:41;12.30;99.90
26909;DHT22;14477;51.038;4.588;2024-02-23T15:01:07;12.30;99.90
26909;DHT22;14477;51.038;4.588;2024-02-23T15:03:33;12.30;99.90
26909;DHT22;14477;51.038;4.588;2024-02-23T15:05:59;12.30;99.90
26909;DHT22;14477;51.038;4.588;2024-02-23T15:08:27;12.30;99.90
26909;DHT22;14477;51.038;4.588;2024-02-23T15:10:52;12.20;99.90
26909;DHT22;14477;51.038;4.588;2024-02-23T15:13:19;12.20;99.90
26909;DHT22;14477;51.038;4.588;2024-02-23T15:15:45;12.10;99.90
26909;DHT22;14477;51.038;4.588;2024-02-23T15:18:10;12.10;99.90
26909;DHT22;14477;51.038;4.588;2024-02-23T15:20:36;12.00;99.90
26909;DHT22;14477;51.038;4.588;2024-02-23T15:23:02;12.00;99.90
26909;DHT22;14477;51.038;4.588;2024-02-23T15:25:28;12.00;99.90
26909;DHT22;14477;51.038;4.588;2024-02-23T15:27:53;11.90;99.90
26909;DHT22;14477;51.038;4.588;2024-02-23T15:30:24;11.90;99.90
26909;DHT22;14477;51.038;4.588;2024-02-23T15:32:49;11.90;99.90
26909;DHT22;14477;51.038;4.588;2024-02-23T15:35:15;11.90;99.90
26909;DHT22;14477;51.038;4.588;2024-02-23T15:37:41;11.90;99.90